Solon, Maine
Current Conditions -  °F | °C
As of 3:55 PM on Sunday 23 Nov 2014 (Local Time) from KWVL Reporting Station
Overcast Overcast  
Wind Chill: 48°   Ceiling: 4500
Heat Index: 48°   Visibility: 10mi
Dew Point: 36°   Wind: 0mph
Humidity: 62%   Direction: NA
Pressure: 30.07"   Gusts: NA
Location:  44.95°N, 69.86°W
Report Text: KWVL 232055Z 00000KT 10SM OVC045 09/02 A3007 RMK AO1 52017
Loading
Personal Weather Stations






























Interactive Weather Map New forecast layout! Learn more

10-Day Weather Forecast

Advertisements
Track Severe Weather on mobile